Time;durP1;ratioP1;P1;durP2;ratioP2;P2;SDS_P1;SDS_P2;PMS_P1;PMS_P2;Temp;Humidity;BMP_temperature;BMP_pressure;BME280_temperature;BME280_humidity;BME280_pressure;Samples;Min_cycle;Max_cycle;Signal;HPM_P1;HPM_P2
2021/08/16 00:02:54;;;;;;;8.27;4.22;;;;;;;;;;6123539;23;20210;-89
2021/08/16 00:05:59;;;;;;;10.77;4.25;;;;;;;;;;6121973;23;20202;-89
2021/08/16 00:09:06;;;;;;;13.35;4.57;;;;;;;;;;6123126;23;20193;-90
2021/08/16 00:12:11;;;;;;;10.57;4.38;;;;;;;;;;6123320;23;20158;-92
2021/08/16 00:15:18;;;;;;;10.55;4.35;;;;;;;;;;6123369;23;20540;-90
2021/08/16 00:18:23;;;;;;;16.70;4.68;;;;;;;;;;6121460;23;20192;-90
2021/08/16 00:21:28;;;;;;;10.70;5.60;;;;;;;;;;6119917;23;20193;-91
2021/08/16 00:24:33;;;;;;;13.40;5.30;;;;;;;;;;6119459;23;20169;-90
2021/08/16 00:27:38;;;;;;;11.85;5.38;;;;;;;;;;6120603;23;20169;-90
2021/08/16 00:30:45;;;;;;;13.43;5.90;;;;;;;;;;6120358;23;20173;-89
2021/08/16 00:33:50;;;;;;;11.45;5.72;;;;;;;;;;6119984;23;20168;-89
2021/08/16 00:36:55;;;;;;;11.40;6.28;;;;;;;;;;6120993;23;20173;-91
2021/08/16 00:40:00;;;;;;;11.02;5.82;;;;;;;;;;6103839;23;20268;-90
2021/08/16 00:43:05;;;;;;;13.98;6.85;;;;;;;;;;6120656;23;20253;-90
2021/08/16 00:46:13;;;;;;;15.93;7.25;;;;;;;;;;6119745;23;20688;-89
2021/08/16 00:49:18;;;;;;;13.23;6.95;;;;;;;;;;6118437;23;20297;-90
2021/08/16 00:52:24;;;;;;;15.18;7.97;;;;;;;;;;6118800;23;20169;-89
2021/08/16 00:55:29;;;;;;;13.82;6.85;;;;;;;;;;6119001;23;20280;-90
2021/08/16 00:58:34;;;;;;;16.50;7.68;;;;;;;;;;6118492;23;20208;-89
2021/08/16 01:01:43;;;;;;;13.63;7.32;;;;;;;;;;6119367;23;20177;-90
2021/08/16 01:04:48;;;;;;;14.27;7.47;;;;;;;;;;6119946;23;20229;-90
2021/08/16 01:07:53;;;;;;;15.32;7.75;;;;;;;;;;6119196;23;20177;-90
2021/08/16 01:10:59;;;;;;;16.42;8.00;;;;;;;;;;6122246;23;20610;-91
2021/08/16 01:19:44;;;;;;;15.30;8.23;;;;;;;;;;6127102;23;20205;-89
2021/08/16 01:22:49;;;;;;;14.98;6.95;;;;;;;;;;6122119;23;20169;-91
2021/08/16 01:25:54;;;;;;;13.50;7.18;;;;;;;;;;6120949;23;20169;-90
2021/08/16 01:29:00;;;;;;;13.07;7.18;;;;;;;;;;6120622;23;20177;-89
2021/08/16 01:32:06;;;;;;;14.25;7.60;;;;;;;;;;6120166;23;20173;-90
2021/08/16 01:35:12;;;;;;;14.65;7.65;;;;;;;;;;6118484;23;20165;-91
2021/08/16 01:38:19;;;;;;;15.45;7.80;;;;;;;;;;6118326;23;20165;-89
2021/08/16 01:41:23;;;;;;;29.70;8.30;;;;;;;;;;6119989;23;20172;-89
2021/08/16 01:44:30;;;;;;;13.65;7.00;;;;;;;;;;6119708;23;20613;-90
2021/08/16 01:47:35;;;;;;;9.88;6.43;;;;;;;;;;6118525;23;20179;-88
2021/08/16 01:50:40;;;;;;;15.18;7.07;;;;;;;;;;6118154;23;20216;-90
2021/08/16 01:53:45;;;;;;;13.50;7.10;;;;;;;;;;6120408;23;20154;-89
2021/08/16 01:56:50;;;;;;;13.60;7.60;;;;;;;;;;6118800;23;20166;-91
2021/08/16 01:59:57;;;;;;;12.75;7.50;;;;;;;;;;6120293;23;20185;-89
2021/08/16 02:03:01;;;;;;;13.88;7.95;;;;;;;;;;6117786;23;20173;-90
2021/08/16 02:06:07;;;;;;;14.07;7.97;;;;;;;;;;6118372;23;20237;-88
2021/08/16 02:09:12;;;;;;;14.52;7.95;;;;;;;;;;6119399;23;20173;-88
2021/08/16 02:12:18;;;;;;;13.57;7.63;;;;;;;;;;6118559;23;20621;-91
2021/08/16 02:15:24;;;;;;;14.00;7.60;;;;;;;;;;6118310;23;20613;-90
2021/08/16 02:18:29;;;;;;;12.90;7.15;;;;;;;;;;6118080;23;20189;-89
2021/08/16 02:21:34;;;;;;;16.70;7.22;;;;;;;;;;6118058;23;20169;-91
2021/08/16 02:24:40;;;;;;;11.48;7.10;;;;;;;;;;6116637;23;20169;-90
2021/08/16 02:27:45;;;;;;;15.73;7.75;;;;;;;;;;6118572;23;20173;-91
2021/08/16 02:30:54;;;;;;;12.13;6.97;;;;;;;;;;6117881;23;20182;-90
2021/08/16 02:33:58;;;;;;;18.40;7.35;;;;;;;;;;6118268;23;20244;-89
2021/08/16 02:37:04;;;;;;;10.60;6.45;;;;;;;;;;6120099;23;20302;-89
2021/08/16 02:40:09;;;;;;;32.47;8.23;;;;;;;;;;6119883;23;20192;-90
2021/08/16 02:43:14;;;;;;;18.55;8.35;;;;;;;;;;6121227;23;20165;-90
2021/08/16 02:46:21;;;;;;;16.63;7.43;;;;;;;;;;6120419;23;20505;-88
2021/08/16 02:49:26;;;;;;;14.73;8.38;;;;;;;;;;6118433;23;20169;-89
2021/08/16 02:52:31;;;;;;;12.55;7.43;;;;;;;;;;6119001;23;20185;-89
2021/08/16 02:55:36;;;;;;;16.70;8.45;;;;;;;;;;6119153;23;20172;-89
2021/08/16 02:58:40;;;;;;;21.35;8.50;;;;;;;;;;6119381;23;20169;-89
2021/08/16 03:01:47;;;;;;;14.98;8.13;;;;;;;;;;6121515;23;20173;-90
2021/08/16 03:04:53;;;;;;;13.40;8.48;;;;;;;;;;6121283;23;20209;-88
2021/08/16 03:07:58;;;;;;;15.02;8.55;;;;;;;;;;6120235;23;20181;-90
2021/08/16 03:11:04;;;;;;;16.25;8.23;;;;;;;;;;6121177;23;20168;-90
2021/08/16 03:14:09;;;;;;;13.40;7.38;;;;;;;;;;6119253;23;20196;-90
2021/08/16 03:17:15;;;;;;;16.10;8.20;;;;;;;;;;6119676;23;20172;-90
2021/08/16 03:20:20;;;;;;;14.65;8.57;;;;;;;;;;6120508;23;20193;-90
2021/08/16 03:23:27;;;;;;;13.50;7.20;;;;;;;;;;6120485;23;20172;-89
2021/08/16 03:26:32;;;;;;;15.32;7.40;;;;;;;;;;6118736;23;20277;-89
2021/08/16 03:29:37;;;;;;;13.68;7.10;;;;;;;;;;6121681;23;20162;-89
2021/08/16 03:32:46;;;;;;;18.13;7.28;;;;;;;;;;6120398;23;20282;-90
2021/08/16 03:35:52;;;;;;;11.52;6.35;;;;;;;;;;6121212;23;20169;-89
2021/08/16 03:38:57;;;;;;;13.15;6.88;;;;;;;;;;6122768;23;20182;-89
2021/08/16 03:42:04;;;;;;;14.52;7.78;;;;;;;;;;6121880;23;20486;-89
2021/08/16 03:45:10;;;;;;;16.20;7.28;;;;;;;;;;6120820;23;20172;-88
2021/08/16 03:48:18;;;;;;;14.13;7.32;;;;;;;;;;6121047;23;20223;-89
2021/08/16 03:51:23;;;;;;;13.27;7.40;;;;;;;;;;6120835;23;20173;-90
2021/08/16 03:54:28;;;;;;;14.15;7.13;;;;;;;;;;6121253;23;20169;-89
2021/08/16 03:57:32;;;;;;;11.80;6.50;;;;;;;;;;6121411;23;20168;-90
2021/08/16 04:00:43;;;;;;;11.98;6.18;;;;;;;;;;6121762;23;20193;-90
2021/08/16 04:04:19;;;;;;;13.52;6.82;;;;;;;;;;6120992;23;20257;-92
2021/08/16 04:07:29;;;;;;;12.88;6.43;;;;;;;;;;6120555;23;20492;-90
2021/08/16 04:10:34;;;;;;;10.15;6.38;;;;;;;;;;6120732;23;20173;-91
2021/08/16 04:13:39;;;;;;;10.55;6.70;;;;;;;;;;6122585;23;20165;-90
2021/08/16 04:16:44;;;;;;;12.10;7.28;;;;;;;;;;6121190;23;20170;-90
2021/08/16 04:19:50;;;;;;;13.13;6.82;;;;;;;;;;6122275;23;20237;-91
2021/08/16 04:22:56;;;;;;;11.18;7.15;;;;;;;;;;6122762;23;20644;-90
2021/08/16 04:26:01;;;;;;;13.55;7.43;;;;;;;;;;6122695;23;20185;-91
2021/08/16 04:29:06;;;;;;;16.10;7.45;;;;;;;;;;6122474;23;20166;-90
2021/08/16 04:32:11;;;;;;;12.20;7.00;;;;;;;;;;6140888;23;20169;-91
2021/08/16 04:35:16;;;;;;;19.33;7.75;;;;;;;;;;6121138;23;20177;-91
2021/08/16 04:38:23;;;;;;;17.25;7.95;;;;;;;;;;6122363;23;20152;-90
2021/08/16 04:41:28;;;;;;;15.93;8.27;;;;;;;;;;6121674;23;20184;-90
2021/08/16 04:44:33;;;;;;;13.30;7.15;;;;;;;;;;6121485;23;20165;-91
2021/08/16 04:47:38;;;;;;;17.38;7.90;;;;;;;;;;6121048;23;20240;-90
2021/08/16 04:50:43;;;;;;;12.80;7.30;;;;;;;;;;6120813;23;20254;-91
2021/08/16 04:53:50;;;;;;;10.90;6.65;;;;;;;;;;6119358;23;20166;-90
2021/08/16 04:56:55;;;;;;;10.80;7.35;;;;;;;;;;6120113;23;20173;-90
2021/08/16 05:00:00;;;;;;;10.20;6.80;;;;;;;;;;6120236;23;20240;-91
2021/08/16 05:03:05;;;;;;;11.70;7.93;;;;;;;;;;6120281;23;20173;-90
2021/08/16 05:06:10;;;;;;;16.13;8.07;;;;;;;;;;6119704;23;20309;-92
2021/08/16 05:09:16;;;;;;;13.98;8.70;;;;;;;;;;6119638;23;20173;-91
2021/08/16 05:12:21;;;;;;;26.60;13.35;;;;;;;;;;6118351;23;20169;-90
2021/08/16 05:15:26;;;;;;;17.35;8.50;;;;;;;;;;6118629;23;20173;-92
2021/08/16 05:18:31;;;;;;;13.18;7.53;;;;;;;;;;6118251;23;20189;-90
2021/08/16 05:21:36;;;;;;;19.05;8.38;;;;;;;;;;6119220;23;20177;-91
2021/08/16 05:24:44;;;;;;;12.52;7.15;;;;;;;;;;6119979;23;20173;-92
2021/08/16 05:27:50;;;;;;;13.50;7.43;;;;;;;;;;6117331;23;20161;-89
2021/08/16 05:30:55;;;;;;;15.15;7.70;;;;;;;;;;6119965;23;20222;-91
2021/08/16 05:34:00;;;;;;;15.77;8.07;;;;;;;;;;6120619;23;20198;-92
2021/08/16 05:37:05;;;;;;;12.25;7.38;;;;;;;;;;6124357;23;20166;-92
2021/08/16 05:40:12;;;;;;;14.10;7.05;;;;;;;;;;6123485;23;20193;-92
2021/08/16 05:43:18;;;;;;;16.13;6.85;;;;;;;;;;6121530;23;20294;-92
2021/08/16 05:46:25;;;;;;;18.27;7.20;;;;;;;;;;6120819;23;20219;-92
2021/08/16 05:49:30;;;;;;;12.15;6.80;;;;;;;;;;6121239;23;20239;-92
2021/08/16 05:52:35;;;;;;;14.63;6.40;;;;;;;;;;6121476;23;20181;-92
2021/08/16 05:55:44;;;;;;;13.13;6.60;;;;;;;;;;6120966;23;20168;-93
2021/08/16 05:58:49;;;;;;;15.50;6.70;;;;;;;;;;6123173;23;20173;-92
2021/08/16 06:01:55;;;;;;;11.15;5.53;;;;;;;;;;6121193;23;20176;-92
2021/08/16 06:05:00;;;;;;;13.02;5.85;;;;;;;;;;6122052;23;20172;-91
2021/08/16 06:08:05;;;;;;;14.52;5.55;;;;;;;;;;6121404;23;20181;-91
2021/08/16 06:11:12;;;;;;;10.93;5.78;;;;;;;;;;6121073;23;20224;-90
2021/08/16 06:14:17;;;;;;;14.70;5.90;;;;;;;;;;6121070;23;20153;-91
2021/08/16 06:17:22;;;;;;;14.40;6.28;;;;;;;;;;6120723;23;20177;-92
2021/08/16 06:20:27;;;;;;;9.52;5.55;;;;;;;;;;6120939;23;20204;-92
2021/08/16 06:23:32;;;;;;;8.50;5.00;;;;;;;;;;6121343;23;20165;-92
2021/08/16 06:26:39;;;;;;;9.95;4.82;;;;;;;;;;6123663;23;20169;-90
2021/08/16 06:29:44;;;;;;;10.18;4.72;;;;;;;;;;6121633;23;20169;-91
2021/08/16 06:32:49;;;;;;;11.13;5.05;;;;;;;;;;6123149;23;20168;-92
2021/08/16 06:35:55;;;;;;;13.13;5.63;;;;;;;;;;6124137;23;20502;-91
2021/08/16 06:39:00;;;;;;;13.23;5.90;;;;;;;;;;6122513;23;20173;-91
2021/08/16 06:42:06;;;;;;;12.52;5.38;;;;;;;;;;6122788;23;20248;-90
2021/08/16 06:45:12;;;;;;;9.32;5.22;;;;;;;;;;6124237;23;20172;-93
2021/08/16 06:48:17;;;;;;;10.43;5.50;;;;;;;;;;6123946;23;20165;-91
2021/08/16 06:51:22;;;;;;;8.25;5.10;;;;;;;;;;6123902;23;20177;-91
2021/08/16 06:54:28;;;;;;;9.20;5.50;;;;;;;;;;6123649;23;20173;-91
2021/08/16 06:57:36;;;;;;;14.50;5.60;;;;;;;;;;6124543;23;20722;-92
2021/08/16 07:00:41;;;;;;;10.05;5.75;;;;;;;;;;6123173;23;20245;-92
2021/08/16 07:03:46;;;;;;;9.07;5.30;;;;;;;;;;6123265;23;20169;-91
2021/08/16 07:06:59;;;;;;;12.02;5.53;;;;;;;;;;6123477;23;20169;-92
2021/08/16 07:10:04;;;;;;;9.48;5.68;;;;;;;;;;6123897;23;20509;-91
2021/08/16 07:13:11;;;;;;;9.02;4.88;;;;;;;;;;6121087;23;20169;-91
2021/08/16 07:16:17;;;;;;;11.70;5.30;;;;;;;;;;6121240;23;20591;-91
2021/08/16 07:19:22;;;;;;;9.98;5.05;;;;;;;;;;6119752;23;20181;-92
2021/08/16 07:22:27;;;;;;;13.95;5.30;;;;;;;;;;6120882;23;20181;-93
2021/08/16 07:25:31;;;;;;;10.98;4.50;;;;;;;;;;6119884;23;20165;-91
2021/08/16 07:28:38;;;;;;;9.77;5.20;;;;;;;;;;6120164;23;20166;-89
2021/08/16 07:31:44;;;;;;;8.00;4.72;;;;;;;;;;6121747;23;20172;-90
2021/08/16 07:34:50;;;;;;;9.82;4.57;;;;;;;;;;6123294;23;20173;-89
2021/08/16 07:37:54;;;;;;;10.35;5.07;;;;;;;;;;6121119;23;20169;-89
2021/08/16 07:40:59;;;;;;;14.65;4.85;;;;;;;;;;6122277;23;20200;-90
2021/08/16 07:44:06;;;;;;;8.95;5.07;;;;;;;;;;6121641;23;20224;-88
2021/08/16 07:47:13;;;;;;;8.65;4.65;;;;;;;;;;6120823;23;20226;-89
2021/08/16 07:50:18;;;;;;;11.93;5.22;;;;;;;;;;6118676;23;20165;-88
2021/08/16 07:53:23;;;;;;;7.78;4.90;;;;;;;;;;6120034;23;20641;-89
2021/08/16 07:56:28;;;;;;;10.80;4.75;;;;;;;;;;6119853;23;20729;-90
2021/08/16 07:59:34;;;;;;;9.52;4.90;;;;;;;;;;6121218;23;20173;-89
2021/08/16 08:02:40;;;;;;;11.32;4.25;;;;;;;;;;6120932;23;20190;-90
2021/08/16 08:05:45;;;;;;;9.50;5.15;;;;;;;;;;6119408;23;20173;-91
2021/08/16 08:08:50;;;;;;;13.15;6.53;;;;;;;;;;6118032;23;20173;-90
2021/08/16 08:11:55;;;;;;;12.10;4.32;;;;;;;;;;6119485;23;20181;-90
2021/08/16 08:15:01;;;;;;;9.15;4.38;;;;;;;;;;6120121;23;20179;-91
2021/08/16 08:18:07;;;;;;;10.52;4.60;;;;;;;;;;6120171;23;20164;-90
2021/08/16 08:21:12;;;;;;;8.38;4.07;;;;;;;;;;6121818;23;20245;-89
2021/08/16 08:24:17;;;;;;;6.95;3.63;;;;;;;;;;6121636;23;20168;-90
2021/08/16 08:27:22;;;;;;;10.25;4.10;;;;;;;;;;6119770;23;20181;-90
2021/08/16 08:30:29;;;;;;;10.48;4.20;;;;;;;;;;6122943;23;20173;-90
2021/08/16 08:33:37;;;;;;;7.35;3.97;;;;;;;;;;6120609;23;20173;-89
2021/08/16 08:36:44;;;;;;;10.15;4.32;;;;;;;;;;6121192;23;20177;-89
2021/08/16 08:39:48;;;;;;;9.07;4.47;;;;;;;;;;6121035;23;20173;-91
2021/08/16 08:42:58;;;;;;;10.13;4.38;;;;;;;;;;6121227;23;20165;-90
2021/08/16 08:46:06;;;;;;;10.23;4.10;;;;;;;;;;6122250;23;20625;-89
2021/08/16 08:49:13;;;;;;;7.60;3.90;;;;;;;;;;6120855;23;20173;-90
2021/08/16 08:52:19;;;;;;;9.15;4.43;;;;;;;;;;6121538;23;20173;-89
2021/08/16 08:55:24;;;;;;;10.13;4.30;;;;;;;;;;6120107;23;20177;-90
2021/08/16 08:58:29;;;;;;;10.02;4.28;;;;;;;;;;6119685;23;20266;-91
2021/08/16 09:01:35;;;;;;;9.20;4.82;;;;;;;;;;6118867;23;20196;-89
2021/08/16 09:04:50;;;;;;;7.75;4.63;;;;;;;;;;6118620;23;20173;-91
2021/08/16 09:07:58;;;;;;;10.32;4.75;;;;;;;;;;6121326;23;20173;-90
2021/08/16 09:11:07;;;;;;;13.02;5.80;;;;;;;;;;6120695;23;20160;-91
2021/08/16 09:14:12;;;;;;;11.27;4.97;;;;;;;;;;6122776;23;20173;-90
2021/08/16 09:17:27;;;;;;;15.65;5.10;;;;;;;;;;6120320;23;20176;-90
2021/08/16 09:20:35;;;;;;;11.48;5.05;;;;;;;;;;6118756;23;20245;-89
2021/08/16 09:23:48;;;;;;;10.93;5.65;;;;;;;;;;6120701;23;20245;-89
2021/08/16 09:27:03;;;;;;;14.68;6.45;;;;;;;;;;6119907;23;20177;-90
2021/08/16 09:30:08;;;;;;;15.93;6.85;;;;;;;;;;6122223;23;20173;-89
2021/08/16 09:36:36;;;;;;;11.93;6.63;;;;;;;;;;6121399;23;20169;-89
2021/08/16 09:39:43;;;;;;;14.73;6.18;;;;;;;;;;6119663;23;20218;-90
2021/08/16 09:42:49;;;;;;;19.27;6.90;;;;;;;;;;6120125;23;20180;-89
2021/08/16 09:45:54;;;;;;;11.50;6.53;;;;;;;;;;6120316;23;20498;-91
2021/08/16 09:49:03;;;;;;;14.07;6.72;;;;;;;;;;6118647;23;20169;-89
2021/08/16 09:52:08;;;;;;;14.32;7.05;;;;;;;;;;6118945;23;20177;-90
2021/08/16 09:55:14;;;;;;;17.10;8.25;;;;;;;;;;6118727;23;20169;-89
2021/08/16 09:58:22;;;;;;;16.20;7.43;;;;;;;;;;6120358;23;20153;-89
2021/08/16 10:01:29;;;;;;;14.23;7.35;;;;;;;;;;6120127;23;20193;-89
2021/08/16 10:04:35;;;;;;;17.30;7.70;;;;;;;;;;6120826;23;20173;-91
2021/08/16 10:07:41;;;;;;;21.85;7.60;;;;;;;;;;6120060;23;20221;-90
2021/08/16 10:10:47;;;;;;;16.85;8.20;;;;;;;;;;6120765;23;20165;-89
2021/08/16 10:13:53;;;;;;;19.48;7.97;;;;;;;;;;6120602;23;20223;-91
2021/08/16 10:16:58;;;;;;;21.10;8.10;;;;;;;;;;6120340;23;20180;-90
2021/08/16 10:20:07;;;;;;;17.95;7.82;;;;;;;;;;6120181;23;20196;-90
2021/08/16 10:23:19;;;;;;;15.73;7.90;;;;;;;;;;6118276;23;20285;-91
2021/08/16 10:26:25;;;;;;;17.70;7.60;;;;;;;;;;6118401;23;20169;-91
2021/08/16 10:29:30;;;;;;;14.95;7.22;;;;;;;;;;6120467;23;20193;-88
2021/08/16 10:32:35;;;;;;;19.05;7.32;;;;;;;;;;6118418;23;20173;-90
2021/08/16 10:35:42;;;;;;;17.45;7.20;;;;;;;;;;6120696;23;20565;-91
2021/08/16 10:38:48;;;;;;;14.43;6.93;;;;;;;;;;6119034;23;20278;-90
2021/08/16 10:41:54;;;;;;;16.35;7.30;;;;;;;;;;6120005;23;20324;-91
2021/08/16 10:45:03;;;;;;;18.20;7.45;;;;;;;;;;6119059;23;20173;-90
2021/08/16 10:48:08;;;;;;;13.55;7.50;;;;;;;;;;6118395;23;20173;-90
2021/08/16 10:51:15;;;;;;;17.50;8.10;;;;;;;;;;6119340;23;20205;-91
2021/08/16 10:54:24;;;;;;;15.68;7.75;;;;;;;;;;6119014;23;20169;-91
2021/08/16 10:57:33;;;;;;;14.82;8.18;;;;;;;;;;6117947;23;20170;-89
2021/08/16 11:00:39;;;;;;;21.20;8.85;;;;;;;;;;6120416;23;20506;-90
2021/08/16 11:03:44;;;;;;;16.52;7.95;;;;;;;;;;6118319;23;20200;-91
2021/08/16 11:06:55;;;;;;;22.98;8.60;;;;;;;;;;6119686;23;20169;-91
2021/08/16 11:10:01;;;;;;;18.42;8.23;;;;;;;;;;6117687;23;20248;-91
2021/08/16 11:13:17;;;;;;;16.67;8.07;;;;;;;;;;6120342;23;20198;-90
2021/08/16 11:16:22;;;;;;;17.15;8.55;;;;;;;;;;6116983;23;20202;-90
2021/08/16 11:19:28;;;;;;;15.15;7.28;;;;;;;;;;6117200;23;20244;-90
2021/08/16 11:22:34;;;;;;;19.83;8.10;;;;;;;;;;6121804;23;20192;-90
2021/08/16 11:25:50;;;;;;;0.50;0.50;;;;;;;;;;6120549;23;20173;-89
2021/08/16 11:29:03;;;;;;;0.55;0.55;;;;;;;;;;6121901;23;20235;-89
2021/08/16 11:32:09;;;;;;;0.90;0.65;;;;;;;;;;6122285;23;20174;-89
2021/08/16 11:35:16;;;;;;;0.60;0.60;;;;;;;;;;6122931;23;20169;-88
2021/08/16 11:38:22;;;;;;;0.52;0.52;;;;;;;;;;6121362;23;20170;-88
2021/08/16 11:41:31;;;;;;;0.70;0.57;;;;;;;;;;6121999;23;20273;-89
2021/08/16 11:44:36;;;;;;;3.88;1.42;;;;;;;;;;6117758;23;20169;-90
2021/08/16 11:47:43;;;;;;;0.40;0.40;;;;;;;;;;6117924;23;20149;-90
2021/08/16 11:50:49;;;;;;;0.38;0.38;;;;;;;;;;6117372;23;20188;-90
2021/08/16 11:53:55;;;;;;;1.05;0.95;;;;;;;;;;6120329;23;20594;-90
2021/08/16 11:57:03;;;;;;;0.77;0.77;;;;;;;;;;6118055;23;20173;-89
2021/08/16 12:00:09;;;;;;;19.67;1.70;;;;;;;;;;6118193;23;20283;-89
2021/08/16 12:03:18;;;;;;;3.20;1.25;;;;;;;;;;6118089;23;20265;-90
2021/08/16 12:06:23;;;;;;;2.38;1.25;;;;;;;;;;6119845;23;20205;-91
2021/08/16 12:09:42;;;;;;;0.63;0.63;;;;;;;;;;6122083;23;20394;-90
2021/08/16 12:12:57;;;;;;;0.65;0.57;;;;;;;;;;6121918;23;20169;-90
2021/08/16 12:16:03;;;;;;;0.38;0.38;;;;;;;;;;6119579;23;20169;-90
2021/08/16 12:19:08;;;;;;;1.60;1.00;;;;;;;;;;6120906;23;20197;-88
2021/08/16 12:22:15;;;;;;;0.82;0.82;;;;;;;;;;6124216;23;20201;-89
2021/08/16 12:28:42;;;;;;;0.40;0.40;;;;;;;;;;6122621;23;20169;-89
2021/08/16 12:31:49;;;;;;;0.50;0.50;;;;;;;;;;6097155;23;20194;-89
2021/08/16 12:34:54;;;;;;;0.43;0.43;;;;;;;;;;6122165;23;20173;-90
2021/08/16 12:38:01;;;;;;;0.63;0.63;;;;;;;;;;6119464;23;20172;-89
2021/08/16 12:41:22;;;;;;;0.75;0.75;;;;;;;;;;6120385;23;20165;-89
2021/08/16 12:44:30;;;;;;;2.45;1.08;;;;;;;;;;6121850;23;20176;-89
2021/08/16 12:47:36;;;;;;;0.65;0.65;;;;;;;;;;6122152;23;20235;-91
2021/08/16 12:50:41;;;;;;;0.32;0.32;;;;;;;;;;6120505;23;20174;-89
2021/08/16 12:53:46;;;;;;;0.40;0.40;;;;;;;;;;6123359;23;20153;-89
2021/08/16 12:56:53;;;;;;;0.47;0.47;;;;;;;;;;6121300;23;20173;-89
2021/08/16 12:59:59;;;;;;;0.50;0.50;;;;;;;;;;6121288;23;20172;-90
2021/08/16 13:03:05;;;;;;;2.90;1.10;;;;;;;;;;6119531;23;20225;-89
2021/08/16 13:06:10;;;;;;;0.55;0.55;;;;;;;;;;6127809;23;20169;-90
2021/08/16 14:38:42;;;;;;;2.92;1.20;;;;;;;;;;6199741;23;20220;-90
2021/08/16 14:41:47;;;;;;;0.30;0.30;;;;;;;;;;6181295;23;20217;-89
2021/08/16 14:44:53;;;;;;;0.77;0.77;;;;;;;;;;6181439;23;20172;-91
2021/08/16 14:47:58;;;;;;;0.80;0.80;;;;;;;;;;6180350;23;20652;-91
2021/08/16 14:51:03;;;;;;;0.57;0.57;;;;;;;;;;6179286;23;20168;-89
2021/08/16 14:54:09;;;;;;;1.65;1.20;;;;;;;;;;6179780;23;20526;-89
2021/08/16 14:57:14;;;;;;;0.73;0.70;;;;;;;;;;6181386;23;20168;-90
2021/08/16 15:00:19;;;;;;;1.05;1.02;;;;;;;;;;6178492;23;20204;-90
2021/08/16 15:03:24;;;;;;;1.63;0.95;;;;;;;;;;6176987;23;20220;-89
2021/08/16 15:06:32;;;;;;;5.72;2.67;;;;;;;;;;6178870;23;20163;-88
2021/08/16 15:09:41;;;;;;;1.15;0.95;;;;;;;;;;6179626;23;20159;-89
2021/08/16 15:12:45;;;;;;;0.77;0.77;;;;;;;;;;6178975;23;20164;-88
2021/08/16 15:15:50;;;;;;;0.70;0.70;;;;;;;;;;6178622;23;20276;-90
2021/08/16 15:18:55;;;;;;;16.92;8.95;;;;;;;;;;6177755;23;20631;-91
2021/08/16 15:22:01;;;;;;;22.15;10.15;;;;;;;;;;6178790;23;20164;-90
2021/08/16 15:25:11;;;;;;;25.58;10.68;;;;;;;;;;6178343;23;20623;-89
2021/08/16 15:28:16;;;;;;;16.73;10.13;;;;;;;;;;6177313;23;20167;-90
2021/08/16 15:31:21;;;;;;;19.67;10.55;;;;;;;;;;6178377;23;20171;-90
2021/08/16 15:34:26;;;;;;;18.52;10.85;;;;;;;;;;6178441;23;20192;-90
2021/08/16 15:37:33;;;;;;;18.73;10.38;;;;;;;;;;6176760;23;20530;-89
2021/08/16 15:40:40;;;;;;;18.30;10.45;;;;;;;;;;6181450;23;20171;-88
2021/08/16 15:43:46;;;;;;;18.63;9.90;;;;;;;;;;6179233;23;20264;-87
2021/08/16 15:46:52;;;;;;;17.05;9.68;;;;;;;;;;6178337;23;20199;-90
2021/08/16 15:49:57;;;;;;;11.65;7.10;;;;;;;;;;6179639;23;20176;-89
2021/08/16 15:53:03;;;;;;;12.15;7.05;;;;;;;;;;6178732;23;20239;-89
2021/08/16 15:56:10;;;;;;;14.63;7.50;;;;;;;;;;6177136;23;20168;-89
2021/08/16 15:59:14;;;;;;;15.07;7.65;;;;;;;;;;6176865;23;20156;-90
2021/08/16 16:02:19;;;;;;;17.08;6.90;;;;;;;;;;6177620;23;20247;-90
2021/08/16 16:05:24;;;;;;;17.13;7.72;;;;;;;;;;6181931;23;20175;-89
2021/08/16 16:08:29;;;;;;;13.85;7.28;;;;;;;;;;6179570;23;20199;-89
2021/08/16 16:11:35;;;;;;;19.15;8.38;;;;;;;;;;6179319;23;20168;-92
2021/08/16 16:14:41;;;;;;;15.38;8.07;;;;;;;;;;6178397;23;20194;-89
2021/08/16 16:17:46;;;;;;;14.38;7.10;;;;;;;;;;6179027;23;20464;-88
2021/08/16 16:20:52;;;;;;;14.07;7.53;;;;;;;;;;6179750;23;20168;-88
2021/08/16 16:23:57;;;;;;;0.60;0.60;;;;;;;;;;6179108;23;20299;-90
2021/08/16 16:27:04;;;;;;;0.65;0.65;;;;;;;;;;6181167;23;20175;-89
2021/08/16 16:30:10;;;;;;;0.85;0.85;;;;;;;;;;6178320;23;20180;-89
2021/08/16 16:33:15;;;;;;;1.70;0.95;;;;;;;;;;6179121;23;20171;-90
2021/08/16 16:36:20;;;;;;;1.35;1.05;;;;;;;;;;6175790;23;20193;-88
2021/08/16 16:39:25;;;;;;;1.02;0.98;;;;;;;;;;6178396;23;20164;-90
2021/08/16 16:42:32;;;;;;;1.05;1.00;;;;;;;;;;6176010;23;20243;-87
2021/08/16 16:45:38;;;;;;;0.50;0.50;;;;;;;;;;6176446;23;20168;-89
2021/08/16 16:48:43;;;;;;;0.80;0.80;;;;;;;;;;6178441;23;20167;-90
2021/08/16 16:51:48;;;;;;;2.05;1.23;;;;;;;;;;6178093;23;20592;-89
2021/08/16 16:54:53;;;;;;;0.50;0.50;;;;;;;;;;6176848;23;20286;-88
2021/08/16 16:58:00;;;;;;;0.50;0.50;;;;;;;;;;6175334;23;20251;-89
2021/08/16 17:01:06;;;;;;;1.30;1.20;;;;;;;;;;6178480;23;20220;-89
2021/08/16 17:04:12;;;;;;;1.25;1.02;;;;;;;;;;6178794;23;20163;-90
2021/08/16 17:07:17;;;;;;;0.82;0.80;;;;;;;;;;6176922;23;20167;-89
2021/08/16 17:10:22;;;;;;;1.38;1.27;;;;;;;;;;6177753;23;20168;-88
2021/08/16 17:13:29;;;;;;;1.25;0.82;;;;;;;;;;6194657;23;20168;-90
2021/08/16 17:16:34;;;;;;;1.95;1.10;;;;;;;;;;6178332;23;20168;-88
2021/08/16 17:19:38;;;;;;;2.20;1.40;;;;;;;;;;6177165;23;20622;-89
2021/08/16 17:22:44;;;;;;;1.13;1.02;;;;;;;;;;6178281;23;20171;-91
2021/08/16 17:25:50;;;;;;;1.25;1.15;;;;;;;;;;6195168;23;20209;-87
2021/08/16 17:28:59;;;;;;;3.72;1.48;;;;;;;;;;6177595;23;20176;-91
2021/08/16 17:32:04;;;;;;;5.82;1.20;;;;;;;;;;6177462;23;20259;-89
2021/08/16 17:35:10;;;;;;;1.10;1.10;;;;;;;;;;6184864;23;20217;-89
2021/08/16 17:38:15;;;;;;;0.70;0.70;;;;;;;;;;6180597;23;20238;-89
2021/08/16 17:41:22;;;;;;;3.17;1.00;;;;;;;;;;6176792;23;20176;-90
2021/08/16 17:44:29;;;;;;;1.67;1.38;;;;;;;;;;6175104;23;20156;-89
2021/08/16 17:47:33;;;;;;;1.38;1.20;;;;;;;;;;6174950;23;20175;-87
2021/08/16 17:50:38;;;;;;;1.92;1.58;;;;;;;;;;6175995;23;20172;-89
2021/08/16 17:53:43;;;;;;;0.80;0.80;;;;;;;;;;6175030;23;20209;-89
2021/08/16 17:56:49;;;;;;;0.88;0.88;;;;;;;;;;6173132;23;20199;-89
2021/08/16 17:59:56;;;;;;;0.93;0.70;;;;;;;;;;6173522;23;20168;-90
2021/08/16 18:03:00;;;;;;;4.03;1.40;;;;;;;;;;6176524;23;20179;-89
2021/08/16 18:06:05;;;;;;;1.65;1.38;;;;;;;;;;6176255;23;20235;-89
2021/08/16 18:09:10;;;;;;;1.83;1.40;;;;;;;;;;6175623;23;20171;-89
2021/08/16 18:12:15;;;;;;;1.40;1.30;;;;;;;;;;6177174;23;20275;-89
2021/08/16 18:15:21;;;;;;;4.32;1.80;;;;;;;;;;6176722;23;20512;-89
2021/08/16 18:18:26;;;;;;;3.00;1.25;;;;;;;;;;6176695;23;20428;-89
2021/08/16 18:21:35;;;;;;;1.33;1.23;;;;;;;;;;6178642;23;20255;-88
2021/08/16 18:24:40;;;;;;;1.17;1.08;;;;;;;;;;6176978;23;20542;-89
2021/08/16 18:27:45;;;;;;;0.82;0.75;;;;;;;;;;6177929;23;20176;-89
2021/08/16 18:30:52;;;;;;;0.90;0.90;;;;;;;;;;6192973;23;20172;-88
2021/08/16 18:33:57;;;;;;;3.70;1.33;;;;;;;;;;6174564;23;20176;-89
2021/08/16 18:37:04;;;;;;;0.90;0.90;;;;;;;;;;6176066;23;20327;-89
2021/08/16 18:40:12;;;;;;;1.02;1.02;;;;;;;;;;6175334;23;20175;-89
2021/08/16 18:43:17;;;;;;;1.38;0.77;;;;;;;;;;6175108;23;20663;-90
2021/08/16 18:46:26;;;;;;;0.95;0.93;;;;;;;;;;6177077;23;20171;-90
2021/08/16 18:49:31;;;;;;;2.58;1.50;;;;;;;;;;6175054;23;20175;-89
2021/08/16 18:52:36;;;;;;;3.17;2.03;;;;;;;;;;6174251;23;20172;-89
2021/08/16 18:55:41;;;;;;;1.15;1.05;;;;;;;;;;6174844;23;20307;-89
2021/08/16 18:58:46;;;;;;;0.85;0.85;;;;;;;;;;6175714;23;20172;-90
2021/08/16 19:01:52;;;;;;;13.30;1.65;;;;;;;;;;6193308;23;20687;-89
2021/08/16 19:04:57;;;;;;;4.38;1.48;;;;;;;;;;6175825;23;20198;-90
2021/08/16 19:08:02;;;;;;;1.55;1.27;;;;;;;;;;6176546;23;20299;-90
2021/08/16 19:11:06;;;;;;;1.00;0.90;;;;;;;;;;6178889;23;20167;-90
2021/08/16 19:14:11;;;;;;;1.50;1.02;;;;;;;;;;6177182;23;20167;-90
2021/08/16 19:17:18;;;;;;;1.85;0.98;;;;;;;;;;6174145;23;20172;-90
2021/08/16 19:20:23;;;;;;;3.17;0.85;;;;;;;;;;6174128;23;20187;-89
2021/08/16 19:23:28;;;;;;;2.03;1.05;;;;;;;;;;6174743;23;20615;-89
2021/08/16 19:26:33;;;;;;;7.13;1.23;;;;;;;;;;6176239;23;20169;-89
2021/08/16 19:29:37;;;;;;;1.83;1.17;;;;;;;;;;6175424;23;20172;-91
2021/08/16 19:32:44;;;;;;;5.75;2.15;;;;;;;;;;6176446;23;20233;-87
2021/08/16 19:35:49;;;;;;;6.10;1.92;;;;;;;;;;6174867;23;20328;-89
2021/08/16 19:38:54;;;;;;;0.63;0.63;;;;;;;;;;6174254;23;20179;-88
2021/08/16 19:41:59;;;;;;;0.77;0.77;;;;;;;;;;6174699;23;20168;-89
2021/08/16 19:45:04;;;;;;;0.70;0.70;;;;;;;;;;6176187;23;20269;-89
2021/08/16 19:48:13;;;;;;;3.55;1.33;;;;;;;;;;6175078;23;20187;-89
2021/08/16 19:51:18;;;;;;;0.60;0.60;;;;;;;;;;6175540;23;20299;-90
2021/08/16 19:54:23;;;;;;;1.17;1.08;;;;;;;;;;6194996;23;20216;-89
2021/08/16 19:57:28;;;;;;;0.45;0.45;;;;;;;;;;6176422;23;20167;-90
2021/08/16 20:00:39;;;;;;;1.48;1.10;;;;;;;;;;6177723;23;20332;-91
2021/08/16 20:03:46;;;;;;;2.22;1.25;;;;;;;;;;6177224;23;20179;-90
2021/08/16 20:06:50;;;;;;;0.60;0.57;;;;;;;;;;6181016;23;20623;-89
2021/08/16 20:09:56;;;;;;;0.52;0.50;;;;;;;;;;6178799;23;20176;-90